Stewartsville, Indiana
Current Conditions -  °F | °C
As of 9:15 AM on Monday 24 Nov 2014 (Local Time) from KCUL Reporting Station
Overcast Overcast  
Wind Chill: 37°   Ceiling: 2500
Heat Index: 44°   Visibility: 10mi
Dew Point: 39°   Wind: 14mph
Humidity: 82%   Direction: 230°SW
Pressure: 29.64"   Gusts: 23mph
Location:  38.1775°N, 87.8268°W
Report Text: KCUL 241515Z AUTO 23012G20KT 10SM BKN025 OVC034 07/04 A2964 RMK AO2 T00650037
Loading
Personal Weather Stations






























Interactive Weather Map New forecast layout! Learn more

10-Day Weather Forecast

Advertisements
Track Severe Weather on mobile